Shelby, Indiana
Current Conditions -  °F | °C
As of 2:55 PM on Tuesday 21 Oct 2014 (Local Time) from KRZL Reporting Station
Overcast Overcast  
Wind Chill: 54°   Ceiling: 3900
Heat Index: 54°   Visibility: 10mi
Dew Point: 45°   Wind: 15mph
Humidity: 72%   Direction: 360°N
Pressure: 30.14"   Gusts: 22mph
Location:  41.2°N, 87.35°W
Report Text: KRZL 211955Z AUTO 36013G19KT 10SM SCT026 BKN039 OVC049 12/07 A3014 RMK AO2
Loading
Personal Weather Stations






























Interactive Weather Map
Tropical Storm Tracking
New forecast layout! Learn more

10-Day Weather Forecast

Advertisements
Track Severe Weather on mobile